Time;durP1;ratioP1;P1;durP2;ratioP2;P2;SDS_P1;SDS_P2;PMS_P1;PMS_P2;Temp;Humidity;BMP_temperature;BMP_pressure;BME280_temperature;BME280_humidity;BME280_pressure;Samples;Min_cycle;Max_cycle;Signal;HPM_P1;HPM_P2
2023/04/20 00:02:13;;;;;;;8.07;2.75;;;7.60;68.10;;;;;;5106791;27;20461;-87
2023/04/20 00:04:39;;;;;;;7.07;2.70;;;7.60;68.30;;;;;;5123846;27;20035;-86
2023/04/20 00:07:05;;;;;;;8.65;2.97;;;7.70;68.10;;;;;;5106366;27;20046;-88
2023/04/20 00:09:31;;;;;;;8.02;2.47;;;7.80;68.20;;;;;;5107937;27;20085;-87
2023/04/20 00:11:56;;;;;;;7.50;2.60;;;7.90;68.50;;;;;;5122905;27;20038;-87
2023/04/20 00:14:22;;;;;;;8.77;2.65;;;7.90;68.40;;;;;;5124373;27;20038;-86
2023/04/20 00:16:49;;;;;;;7.18;3.30;;;8.00;68.50;;;;;;5103681;27;20471;-86
2023/04/20 00:19:14;;;;;;;6.35;2.20;;;8.10;68.40;;;;;;5125118;27;20070;-87
2023/04/20 00:21:40;;;;;;;6.38;2.78;;;8.10;68.40;;;;;;5107321;27;20105;-86
2023/04/20 00:24:06;;;;;;;5.13;2.15;;;8.10;68.90;;;;;;5125609;27;20066;-86
2023/04/20 00:26:32;;;;;;;6.70;2.20;;;8.20;68.40;;;;;;5106050;27;20110;-86
2023/04/20 00:28:58;;;;;;;6.30;2.40;;;8.20;68.40;;;;;;5106975;27;20049;-86
2023/04/20 00:31:24;;;;;;;7.63;2.60;;;8.20;68.40;;;;;;5106500;27;20035;-86
2023/04/20 00:33:49;;;;;;;7.85;2.10;;;8.20;68.40;;;;;;5105353;27;20039;-86
2023/04/20 00:36:15;;;;;;;8.38;2.83;;;8.20;68.50;;;;;;5124275;27;20078;-87
2023/04/20 00:38:41;;;;;;;6.38;2.20;;;8.20;68.70;;;;;;5105947;27;20038;-87
2023/04/20 00:41:06;;;;;;;5.05;2.05;;;8.20;68.90;;;;;;5123560;27;20042;-86
2023/04/20 00:43:32;;;;;;;7.55;2.55;;;8.20;69.00;;;;;;5123120;27;20136;-86
2023/04/20 00:45:58;;;;;;;6.80;2.30;;;8.20;69.20;;;;;;5122919;27;20717;-86
2023/04/20 00:48:23;;;;;;;6.82;2.47;;;8.30;69.50;;;;;;5123299;27;20083;-86
2023/04/20 00:50:49;;;;;;;7.28;2.28;;;8.30;69.40;;;;;;5105198;27;20395;-86
2023/04/20 00:53:17;;;;;;;7.45;2.20;;;8.30;69.50;;;;;;5101612;27;20031;-86
2023/04/20 00:55:43;;;;;;;6.38;2.13;;;8.40;69.40;;;;;;5106280;27;20039;-86
2023/04/20 00:58:10;;;;;;;11.77;2.20;;;8.40;69.70;;;;;;5124076;27;20035;-86
2023/04/20 01:00:36;;;;;;;6.53;2.20;;;8.40;69.70;;;;;;5102177;27;20031;-87
2023/04/20 01:03:02;;;;;;;5.95;2.00;;;8.50;69.70;;;;;;5119547;27;20042;-88
2023/04/20 01:05:27;;;;;;;7.57;2.65;;;8.50;69.70;;;;;;5106926;27;20034;-88
2023/04/20 01:07:53;;;;;;;7.38;1.95;;;8.50;69.70;;;;;;5105881;27;20027;-88
2023/04/20 01:10:18;;;;;;;4.80;1.75;;;8.50;69.50;;;;;;5095725;27;20083;-88
2023/04/20 01:12:44;;;;;;;7.85;2.33;;;8.60;69.40;;;;;;5113647;27;20027;-89
2023/04/20 01:15:11;;;;;;;6.78;2.60;;;8.60;69.30;;;;;;5094979;28;20526;-88
2023/04/20 01:17:38;;;;;;;6.57;2.20;;;8.70;69.20;;;;;;5095552;27;20327;-88
2023/04/20 01:20:08;;;;;;;7.55;2.60;;;8.70;69.10;;;;;;5094443;27;20042;-87
2023/04/20 01:22:44;;;;;;;7.22;2.25;;;8.70;68.90;;;;;;5096048;27;20038;-88
2023/04/20 01:25:10;;;;;;;9.57;2.20;;;8.80;68.60;;;;;;5112555;28;20047;-87
2023/04/20 01:27:35;;;;;;;6.55;2.35;;;8.90;68.40;;;;;;5104498;27;20056;-87
2023/04/20 01:30:01;;;;;;;4.53;1.90;;;8.90;68.40;;;;;;5112262;27;20039;-88
2023/04/20 01:32:26;;;;;;;6.00;1.95;;;8.90;68.10;;;;;;5104321;27;20428;-88
2023/04/20 01:34:52;;;;;;;8.07;2.47;;;8.90;67.90;;;;;;5092509;28;20036;-88
2023/04/20 01:37:18;;;;;;;7.10;2.58;;;9.00;67.90;;;;;;5103450;28;20070;-88
2023/04/20 01:39:44;;;;;;;5.75;1.90;;;9.00;67.90;;;;;;5095659;28;20646;-88
2023/04/20 01:42:10;;;;;;;8.93;2.22;;;9.00;67.60;;;;;;5094683;28;20035;-87
2023/04/20 01:44:35;;;;;;;5.22;1.80;;;9.10;67.70;;;;;;5112655;28;20031;-87
2023/04/20 01:47:01;;;;;;;7.22;2.03;;;9.10;67.50;;;;;;5113101;28;20043;-87
2023/04/20 01:49:27;;;;;;;6.53;1.90;;;9.10;67.50;;;;;;5094193;28;20400;-87
2023/04/20 01:51:52;;;;;;;5.97;1.95;;;9.10;67.50;;;;;;5096020;28;20129;-87
2023/04/20 01:54:18;;;;;;;6.53;2.10;;;9.10;67.50;;;;;;5095480;28;20091;-87
2023/04/20 01:56:44;;;;;;;5.82;1.90;;;9.10;67.60;;;;;;5096115;28;20051;-87
2023/04/20 01:59:09;;;;;;;7.43;2.20;;;9.20;67.80;;;;;;5075824;28;20043;-87
2023/04/20 02:01:35;;;;;;;8.18;2.00;;;9.20;67.90;;;;;;5082651;28;20505;-88
2023/04/20 02:04:01;;;;;;;6.25;1.92;;;9.10;67.90;;;;;;5095330;28;20062;-87
2023/04/20 02:06:26;;;;;;;6.93;1.70;;;9.20;67.90;;;;;;5095731;28;20039;-87
2023/04/20 02:08:52;;;;;;;6.30;1.83;;;9.20;68.00;;;;;;5112168;28;20056;-87
2023/04/20 02:11:18;;;;;;;13.98;2.58;;;9.20;68.10;;;;;;5095289;28;20035;-87
2023/04/20 02:13:43;;;;;;;6.32;1.65;;;9.20;68.10;;;;;;5112222;28;20035;-88
2023/04/20 02:16:09;;;;;;;7.30;2.00;;;9.20;68.20;;;;;;5101973;28;20043;-87
2023/04/20 02:18:36;;;;;;;5.80;2.22;;;9.20;68.20;;;;;;5075440;28;20032;-87
2023/04/20 02:21:02;;;;;;;9.25;2.13;;;9.20;68.40;;;;;;5100832;28;20111;-87
2023/04/20 02:23:27;;;;;;;6.43;2.03;;;9.20;68.50;;;;;;5112802;28;20080;-87
2023/04/20 02:25:53;;;;;;;8.80;2.10;;;9.20;68.70;;;;;;5112995;28;20039;-87
2023/04/20 02:28:19;;;;;;;6.47;1.80;;;9.20;68.90;;;;;;5108499;28;20066;-87
2023/04/20 02:30:45;;;;;;;7.03;2.35;;;9.20;69.00;;;;;;5079140;28;20044;-87
2023/04/20 02:33:10;;;;;;;9.23;2.15;;;9.20;69.20;;;;;;5099841;27;20042;-87
2023/04/20 02:35:36;;;;;;;7.05;2.13;;;9.20;69.40;;;;;;5084354;28;20040;-87
2023/04/20 02:38:01;;;;;;;10.32;2.10;;;9.20;69.60;;;;;;5079413;28;20035;-87
2023/04/20 02:40:27;;;;;;;8.32;2.10;;;9.20;69.80;;;;;;5098159;27;20046;-87
2023/04/20 02:42:53;;;;;;;7.57;2.00;;;9.20;69.90;;;;;;5116355;27;20039;-87
2023/04/20 02:45:18;;;;;;;6.68;1.77;;;9.20;69.90;;;;;;5099488;27;20075;-87
2023/04/20 02:47:44;;;;;;;7.60;1.80;;;9.20;70.00;;;;;;5116074;27;20045;-87
2023/04/20 02:50:10;;;;;;;7.80;1.80;;;9.20;70.10;;;;;;5098822;27;20042;-87
2023/04/20 02:52:35;;;;;;;7.28;2.05;;;9.20;70.50;;;;;;5087855;28;20070;-87
2023/04/20 02:55:01;;;;;;;7.15;2.17;;;9.10;71.20;;;;;;5078907;28;20039;-87
2023/04/20 02:57:27;;;;;;;8.88;2.17;;;9.10;71.00;;;;;;5120795;27;20386;-87
2023/04/20 02:59:53;;;;;;;7.15;2.60;;;9.10;71.30;;;;;;5098380;27;20072;-87
2023/04/20 03:02:18;;;;;;;7.88;2.47;;;9.10;71.40;;;;;;5099021;27;20422;-87
2023/04/20 03:04:44;;;;;;;7.15;2.22;;;9.10;71.60;;;;;;5098105;27;20043;-87
2023/04/20 03:07:09;;;;;;;6.70;2.42;;;9.10;71.50;;;;;;5098763;27;20419;-87
2023/04/20 03:09:36;;;;;;;6.75;2.20;;;9.10;71.60;;;;;;5097329;27;20038;-87
2023/04/20 03:12:05;;;;;;;6.05;1.85;;;9.10;71.60;;;;;;5115198;27;20441;-87
2023/04/20 03:14:31;;;;;;;8.70;2.30;;;9.10;71.90;;;;;;5098215;27;20035;-87
2023/04/20 03:16:57;;;;;;;9.35;2.08;;;9.10;71.90;;;;;;5114505;27;20114;-87
2023/04/20 03:19:23;;;;;;;8.70;2.17;;;9.10;71.90;;;;;;5115346;27;20036;-87
2023/04/20 03:21:48;;;;;;;6.93;2.10;;;9.10;72.00;;;;;;5114186;27;20053;-87
2023/04/20 03:24:15;;;;;;;6.95;2.20;;;9.10;72.00;;;;;;5115704;27;20575;-87
2023/04/20 03:26:41;;;;;;;9.88;2.65;;;9.10;71.90;;;;;;5088569;27;20564;-90
2023/04/20 03:29:06;;;;;;;7.03;2.13;;;9.10;71.80;;;;;;5098563;27;20074;-87
2023/04/20 03:31:32;;;;;;;8.82;2.17;;;9.10;71.80;;;;;;5115535;27;20075;-87
2023/04/20 03:33:58;;;;;;;9.30;2.25;;;9.10;71.80;;;;;;5086848;28;20416;-87
2023/04/20 03:36:24;;;;;;;7.90;2.25;;;9.10;71.50;;;;;;5095305;28;20054;-87
2023/04/20 03:38:49;;;;;;;7.40;2.40;;;9.10;71.40;;;;;;5102468;28;20050;-87
2023/04/20 03:41:15;;;;;;;7.90;2.20;;;9.10;71.40;;;;;;5094494;28;20382;-87
2023/04/20 03:43:40;;;;;;;8.90;2.55;;;9.10;71.40;;;;;;5085254;27;20055;-87
2023/04/20 03:46:06;;;;;;;6.60;2.28;;;9.10;71.40;;;;;;5078582;28;20491;-87
2023/04/20 03:48:32;;;;;;;6.90;2.28;;;9.10;71.40;;;;;;5079083;27;20071;-87
2023/04/20 03:50:58;;;;;;;7.25;2.42;;;9.10;71.40;;;;;;5114463;27;20035;-87
2023/04/20 03:53:24;;;;;;;7.00;2.78;;;9.10;71.40;;;;;;5097663;27;20039;-87
2023/04/20 03:55:50;;;;;;;7.57;2.35;;;9.10;71.40;;;;;;5097018;27;20027;-86
2023/04/20 03:58:16;;;;;;;8.20;2.50;;;9.10;71.40;;;;;;5098366;28;20135;-87
2023/04/20 04:00:42;;;;;;;7.60;2.55;;;9.00;71.30;;;;;;5077185;28;20035;-87
2023/04/20 04:03:08;;;;;;;9.77;2.70;;;9.00;71.30;;;;;;5085277;28;20038;-87
2023/04/20 04:05:34;;;;;;;6.95;2.45;;;9.00;71.30;;;;;;5094160;28;20042;-87
2023/04/20 04:07:59;;;;;;;7.57;2.40;;;9.00;71.10;;;;;;5079955;27;20027;-87
2023/04/20 04:10:25;;;;;;;6.85;2.47;;;9.00;71.10;;;;;;5099080;28;20035;-87
2023/04/20 04:12:51;;;;;;;9.57;2.85;;;9.00;71.00;;;;;;5077146;28;20436;-87
2023/04/20 04:15:18;;;;;;;6.85;2.50;;;9.00;70.90;;;;;;5085304;27;20528;-87
2023/04/20 04:17:44;;;;;;;9.25;2.80;;;9.10;70.90;;;;;;5096798;27;20039;-87
2023/04/20 04:20:10;;;;;;;7.93;2.45;;;9.00;70.90;;;;;;5096753;27;20648;-87
2023/04/20 04:22:36;;;;;;;8.15;2.50;;;9.10;70.70;;;;;;5096326;27;20031;-87
2023/04/20 04:25:03;;;;;;;6.68;2.03;;;9.00;70.60;;;;;;5097069;27;20061;-87
2023/04/20 04:27:33;;;;;;;7.10;2.30;;;9.00;70.30;;;;;;5097137;27;20491;-87
2023/04/20 04:30:03;;;;;;;6.55;2.55;;;9.00;70.30;;;;;;5085452;28;20035;-86
2023/04/20 04:32:29;;;;;;;7.45;2.35;;;9.10;70.10;;;;;;5093439;28;20487;-86
2023/04/20 04:34:55;;;;;;;9.38;2.67;;;9.10;69.90;;;;;;5101871;28;20512;-87
2023/04/20 04:37:21;;;;;;;6.57;2.00;;;9.10;69.80;;;;;;5076472;28;20047;-86
2023/04/20 04:39:47;;;;;;;7.18;2.30;;;9.10;69.70;;;;;;5078742;27;20061;-86
2023/04/20 04:42:12;;;;;;;5.45;2.22;;;9.10;69.60;;;;;;5096867;27;20395;-86
2023/04/20 04:44:38;;;;;;;5.65;1.98;;;9.10;69.50;;;;;;5094670;27;20741;-87
2023/04/20 04:47:04;;;;;;;7.72;2.00;;;9.10;69.50;;;;;;5076161;28;20046;-86
2023/04/20 04:49:31;;;;;;;7.22;2.25;;;9.10;69.40;;;;;;5075435;28;20118;-87
2023/04/20 04:51:56;;;;;;;6.18;1.92;;;9.10;69.30;;;;;;5075109;27;20041;-87
2023/04/20 04:54:22;;;;;;;8.55;2.25;;;9.10;69.30;;;;;;5092166;28;20495;-87
2023/04/20 04:56:48;;;;;;;11.57;2.17;;;9.10;69.20;;;;;;5075892;28;20044;-87
2023/04/20 04:59:13;;;;;;;9.52;2.00;;;9.10;69.20;;;;;;5100984;27;20035;-87
2023/04/20 05:01:39;;;;;;;6.63;1.95;;;9.10;69.10;;;;;;5096619;28;20066;-87
2023/04/20 05:04:05;;;;;;;7.70;1.88;;;9.10;69.10;;;;;;5090986;28;20512;-87
2023/04/20 05:06:31;;;;;;;5.25;1.50;;;9.10;69.00;;;;;;5075998;28;20042;-87
2023/04/20 05:08:57;;;;;;;4.50;1.80;;;9.10;69.00;;;;;;5078422;27;20090;-87
2023/04/20 05:11:22;;;;;;;4.20;1.63;;;9.10;69.00;;;;;;5080692;28;20514;-87
2023/04/20 05:13:48;;;;;;;6.57;1.98;;;9.10;68.90;;;;;;5092610;28;20126;-87
2023/04/20 05:16:14;;;;;;;6.85;2.05;;;9.10;69.00;;;;;;5083710;28;20046;-87
2023/04/20 05:18:40;;;;;;;8.00;1.80;;;9.00;68.80;;;;;;5089774;27;20428;-87
2023/04/20 05:21:05;;;;;;;5.88;1.80;;;9.00;68.90;;;;;;5096236;27;20035;-87
2023/04/20 05:23:31;;;;;;;7.25;1.88;;;9.10;69.00;;;;;;5082037;28;20036;-87
2023/04/20 05:25:56;;;;;;;5.38;1.90;;;9.00;69.10;;;;;;5093030;28;20046;-87
2023/04/20 05:28:22;;;;;;;7.65;2.00;;;9.00;69.30;;;;;;5085771;27;20050;-86
2023/04/20 05:30:47;;;;;;;5.75;1.83;;;9.00;69.50;;;;;;5095992;27;20049;-87
2023/04/20 05:33:13;;;;;;;5.13;2.08;;;8.90;69.90;;;;;;5112910;27;20031;-87
2023/04/20 05:35:39;;;;;;;7.50;2.13;;;8.90;70.20;;;;;;5112436;27;20496;-87
2023/04/20 05:38:05;;;;;;;6.93;2.42;;;8.90;70.40;;;;;;5095816;27;20039;-88
2023/04/20 05:40:33;;;;;;;7.57;2.42;;;8.90;70.70;;;;;;5127334;27;20031;-88
2023/04/20 05:42:59;;;;;;;7.13;2.35;;;8.80;70.90;;;;;;5127031;27;20047;-87
2023/04/20 05:45:25;;;;;;;6.45;2.10;;;8.80;71.20;;;;;;5091439;28;20519;-87
2023/04/20 05:48:00;;;;;;;7.68;1.92;;;8.80;71.20;;;;;;5074832;28;20035;-88
2023/04/20 05:50:26;;;;;;;7.78;2.78;;;8.80;71.70;;;;;;5081557;28;20047;-87
2023/04/20 05:52:52;;;;;;;8.13;2.53;;;8.80;72.00;;;;;;5075144;28;20488;-88
2023/04/20 05:55:19;;;;;;;6.00;2.20;;;8.80;72.40;;;;;;5086180;28;20027;-87
2023/04/20 05:57:45;;;;;;;7.68;2.33;;;8.70;72.40;;;;;;5112446;28;20553;-87
2023/04/20 06:00:12;;;;;;;5.78;2.30;;;8.80;72.60;;;;;;5111550;28;20031;-87
2023/04/20 06:02:38;;;;;;;6.60;2.20;;;8.70;73.00;;;;;;5080439;28;20038;-88
2023/04/20 06:05:04;;;;;;;7.78;2.25;;;8.70;73.40;;;;;;5095881;28;20036;-87
2023/04/20 06:07:30;;;;;;;7.45;2.17;;;8.70;73.80;;;;;;5087726;27;20071;-88
2023/04/20 06:09:56;;;;;;;6.78;2.25;;;8.70;74.80;;;;;;5115638;27;20473;-87
2023/04/20 06:12:22;;;;;;;8.43;2.50;;;8.60;74.30;;;;;;5115501;27;20042;-87
2023/04/20 06:14:47;;;;;;;6.88;2.63;;;8.60;74.60;;;;;;5116235;27;20504;-88
2023/04/20 06:17:13;;;;;;;7.40;2.80;;;8.60;75.00;;;;;;5114802;27;20043;-87
2023/04/20 06:19:39;;;;;;;7.40;2.58;;;8.60;75.10;;;;;;5126210;27;20042;-87
2023/04/20 06:22:08;;;;;;;6.53;2.15;;;8.60;75.40;;;;;;5079575;28;20032;-86
2023/04/20 06:24:34;;;;;;;7.32;2.60;;;8.60;75.60;;;;;;5084641;27;20111;-87
2023/04/20 06:27:00;;;;;;;7.47;2.97;;;8.60;76.20;;;;;;5099421;27;20039;-87
2023/04/20 06:29:27;;;;;;;7.38;2.63;;;8.50;77.00;;;;;;5116035;27;20043;-87
2023/04/20 06:31:52;;;;;;;7.32;2.75;;;8.60;77.60;;;;;;5114783;27;20043;-87
2023/04/20 06:34:18;;;;;;;10.65;3.53;;;8.50;78.90;;;;;;5115367;27;20411;-87
2023/04/20 06:36:44;;;;;;;7.97;3.20;;;8.50;79.30;;;;;;5115255;27;20088;-87
2023/04/20 06:39:12;;;;;;;8.52;3.10;;;8.50;80.40;;;;;;5083854;28;20028;-87
2023/04/20 06:41:38;;;;;;;9.18;3.60;;;8.50;81.90;;;;;;5078356;28;20077;-87
2023/04/20 06:44:04;;;;;;;10.13;3.60;;;8.50;82.40;;;;;;5107920;27;20401;-87
2023/04/20 06:46:30;;;;;;;10.05;3.10;;;8.50;83.50;;;;;;5098867;27;20062;-87
2023/04/20 06:48:56;;;;;;;9.52;3.10;;;8.50;84.80;;;;;;5105257;27;20043;-87
2023/04/20 06:51:22;;;;;;;7.00;2.92;;;8.50;86.20;;;;;;5114910;27;20038;-88
2023/04/20 06:53:47;;;;;;;7.85;3.17;;;8.60;86.50;;;;;;5098615;27;20096;-87
2023/04/20 06:56:13;;;;;;;7.95;2.80;;;8.50;87.20;;;;;;5088725;27;20067;-87
2023/04/20 06:58:39;;;;;;;7.53;2.47;;;8.50;88.20;;;;;;5115002;27;20047;-88
2023/04/20 07:01:05;;;;;;;8.27;2.85;;;8.50;89.20;;;;;;5091620;28;20495;-87
2023/04/20 07:03:30;;;;;;;8.82;3.08;;;8.50;89.80;;;;;;5094456;28;20107;-88
2023/04/20 07:05:56;;;;;;;6.63;2.50;;;8.50;90.00;;;;;;5094857;28;20493;-87
2023/04/20 07:08:22;;;;;;;8.93;2.78;;;8.40;90.50;;;;;;5110894;27;20036;-88
2023/04/20 07:10:47;;;;;;;9.07;2.83;;;8.40;90.90;;;;;;5114679;27;20484;-87
2023/04/20 07:13:13;;;;;;;8.25;2.65;;;8.30;91.40;;;;;;5105753;27;20097;-87
2023/04/20 07:15:39;;;;;;;6.57;2.72;;;8.30;91.60;;;;;;5114772;27;20030;-88
2023/04/20 07:18:05;;;;;;;8.48;2.60;;;8.30;92.30;;;;;;5107619;28;20475;-89
2023/04/20 07:20:30;;;;;;;6.47;2.22;;;8.20;92.60;;;;;;5095735;27;20046;-88
2023/04/20 07:22:56;;;;;;;8.88;2.75;;;8.20;92.80;;;;;;5098137;27;20035;-87
2023/04/20 07:25:23;;;;;;;8.95;2.75;;;8.20;93.00;;;;;;5096818;27;20080;-87
2023/04/20 07:27:48;;;;;;;9.40;3.30;;;8.20;93.10;;;;;;5097535;27;20524;-87
2023/04/20 07:30:14;;;;;;;7.47;2.88;;;8.20;93.50;;;;;;5097207;27;20039;-87
2023/04/20 07:32:40;;;;;;;9.65;2.80;;;8.30;93.90;;;;;;5085367;28;20524;-87
2023/04/20 07:35:06;;;;;;;10.27;3.53;;;8.30;93.70;;;;;;5094252;28;20042;-87
2023/04/20 07:37:33;;;;;;;7.50;2.90;;;8.40;94.30;;;;;;5095258;27;20084;-87
2023/04/20 07:39:58;;;;;;;7.22;2.78;;;8.40;94.10;;;;;;5097077;27;20510;-87
2023/04/20 07:42:24;;;;;;;8.77;3.47;;;8.40;94.40;;;;;;5114013;27;20122;-87
2023/04/20 07:44:50;;;;;;;8.50;2.75;;;8.40;94.70;;;;;;5113314;27;20035;-87
2023/04/20 07:47:15;;;;;;;6.90;2.63;;;8.50;94.60;;;;;;5099650;27;20047;-87
2023/04/20 07:49:42;;;;;;;9.02;3.10;;;8.50;94.50;;;;;;5100155;27;20097;-87
2023/04/20 07:52:08;;;;;;;7.85;3.08;;;8.60;94.40;;;;;;5097334;27;20043;-87
2023/04/20 07:54:33;;;;;;;8.40;2.90;;;8.60;94.40;;;;;;5104526;27;20083;-88
2023/04/20 07:57:00;;;;;;;11.85;3.30;;;8.70;94.30;;;;;;5097535;27;20122;-88
2023/04/20 07:59:26;;;;;;;11.98;3.60;;;8.80;94.40;;;;;;5096348;27;20039;-87
2023/04/20 08:01:51;;;;;;;9.57;2.90;;;8.80;94.60;;;;;;5096603;27;20724;-87
2023/04/20 08:04:17;;;;;;;13.30;3.60;;;8.80;94.50;;;;;;5113746;27;20042;-87
2023/04/20 08:06:43;;;;;;;10.35;4.00;;;8.80;94.50;;;;;;5086078;28;20035;-88
2023/04/20 08:09:08;;;;;;;8.38;3.20;;;8.80;94.90;;;;;;5093175;28;20039;-87
2023/04/20 08:11:35;;;;;;;7.75;3.35;;;8.80;94.30;;;;;;5107720;27;20042;-87
2023/04/20 08:14:00;;;;;;;9.75;3.60;;;8.80;94.60;;;;;;5113053;27;20035;-87
2023/04/20 08:16:26;;;;;;;10.25;3.22;;;8.90;94.50;;;;;;5085881;27;20054;-87
2023/04/20 08:18:51;;;;;;;9.55;3.17;;;8.90;94.50;;;;;;5096237;27;20031;-87
2023/04/20 08:21:17;;;;;;;10.50;3.33;;;8.90;94.40;;;;;;5096914;27;20035;-87
2023/04/20 08:23:43;;;;;;;8.57;3.13;;;9.00;94.80;;;;;;5096167;27;20122;-87
2023/04/20 08:26:15;;;;;;;9.15;3.78;;;9.00;95.00;;;;;;5096036;27;20047;-86
2023/04/20 08:28:43;;;;;;;10.57;3.20;;;9.10;95.00;;;;;;5115704;27;20045;-87
2023/04/20 08:31:08;;;;;;;8.63;3.47;;;9.10;95.40;;;;;;5081977;28;20530;-87
2023/04/20 08:33:34;;;;;;;9.65;3.95;;;9.20;95.10;;;;;;5075885;28;20035;-87
2023/04/20 08:36:00;;;;;;;9.43;3.30;;;9.20;94.90;;;;;;5075941;28;20050;-87
2023/04/20 08:38:26;;;;;;;10.15;3.33;;;9.20;94.90;;;;;;5093199;28;20040;-87
2023/04/20 08:40:51;;;;;;;9.63;3.78;;;9.30;95.20;;;;;;5078352;27;20804;-88
2023/04/20 08:43:17;;;;;;;10.68;3.58;;;9.40;94.90;;;;;;5082210;28;20108;-88
2023/04/20 08:45:48;;;;;;;10.32;4.15;;;9.50;94.70;;;;;;5076175;28;20481;-88
2023/04/20 08:48:16;;;;;;;10.85;3.83;;;9.50;94.60;;;;;;5130245;27;20163;-88
2023/04/20 08:50:41;;;;;;;9.60;3.80;;;9.50;94.60;;;;;;5096561;27;20080;-88
2023/04/20 08:53:08;;;;;;;10.38;3.90;;;9.50;94.40;;;;;;5095882;27;20031;-88
2023/04/20 08:55:34;;;;;;;8.93;3.58;;;9.60;94.50;;;;;;5101360;27;20109;-88
2023/04/20 08:57:59;;;;;;;9.50;3.50;;;9.60;94.40;;;;;;5123556;27;20113;-88
2023/04/20 09:00:25;;;;;;;9.88;3.55;;;9.70;94.80;;;;;;5121626;27;20475;-88
2023/04/20 09:02:53;;;;;;;11.02;3.85;;;9.70;94.20;;;;;;5106684;27;20153;-88
2023/04/20 09:05:30;;;;;;;9.50;3.70;;;9.70;93.80;;;;;;5121923;27;20031;-88
2023/04/20 09:07:57;;;;;;;11.43;4.25;;;9.80;94.10;;;;;;5104602;27;20042;-88
2023/04/20 09:10:24;;;;;;;9.82;4.20;;;9.80;93.90;;;;;;5104331;27;20038;-88
2023/04/20 09:12:51;;;;;;;9.07;3.83;;;9.80;94.00;;;;;;5106146;27;20039;-88
2023/04/20 09:15:27;;;;;;;11.40;4.15;;;9.90;94.30;;;;;;5122255;27;20049;-87
2023/04/20 09:17:53;;;;;;;10.52;3.58;;;10.00;95.10;;;;;;5102850;27;20038;-87
2023/04/20 09:20:33;;;;;;;9.32;3.13;;;10.10;94.10;;;;;;5120158;27;20035;-88
2023/04/20 09:23:15;;;;;;;10.43;4.57;;;10.20;93.60;;;;;;5104994;27;20496;-88
2023/04/20 09:25:42;;;;;;;9.30;4.22;;;10.30;94.40;;;;;;5102075;27;20430;-88
2023/04/20 09:28:08;;;;;;;8.40;4.05;;;10.50;93.50;;;;;;5103480;27;20431;-88
2023/04/20 09:30:42;;;;;;;11.90;4.57;;;10.50;92.80;;;;;;5105950;27;20034;-88
2023/04/20 09:33:10;;;;;;;9.13;4.50;;;10.60;92.70;;;;;;5103400;27;20527;-88
2023/04/20 09:35:38;;;;;;;8.73;4.32;;;10.60;92.20;;;;;;5100983;27;20039;-88
2023/04/20 09:38:04;;;;;;;9.82;4.13;;;10.60;91.90;;;;;;5121122;27;20047;-88
2023/04/20 09:40:32;;;;;;;10.00;4.13;;;10.60;91.80;;;;;;5104714;27;20535;-87
2023/04/20 09:43:01;;;;;;;9.40;4.22;;;10.50;91.70;;;;;;5104843;27;20035;-88
2023/04/20 09:45:28;;;;;;;10.73;4.20;;;10.50;91.70;;;;;;5105345;27;20390;-88
2023/04/20 09:47:54;;;;;;;11.82;5.30;;;10.50;92.20;;;;;;5104839;27;20042;-87
2023/04/20 09:50:20;;;;;;;10.43;4.47;;;10.60;92.40;;;;;;5123049;27;20030;-88
2023/04/20 09:52:48;;;;;;;12.98;5.13;;;10.60;92.60;;;;;;5104724;27;20038;-88
2023/04/20 09:55:14;;;;;;;10.43;4.50;;;10.60;92.60;;;;;;5122635;27;20035;-88
2023/04/20 09:57:43;;;;;;;9.38;4.63;;;10.50;92.50;;;;;;5101844;27;20035;-87
2023/04/20 10:00:11;;;;;;;11.07;5.55;;;10.50;92.50;;;;;;5116111;28;20068;-88
2023/04/20 10:02:37;;;;;;;10.68;5.25;;;10.40;92.50;;;;;;5114052;27;20039;-88
2023/04/20 10:05:03;;;;;;;12.88;5.60;;;10.40;92.90;;;;;;5105855;27;20039;-88
2023/04/20 10:07:31;;;;;;;14.45;5.78;;;10.40;93.00;;;;;;5105279;27;20035;-88
2023/04/20 10:10:14;;;;;;;10.10;5.15;;;10.40;93.20;;;;;;5104828;27;20035;-88
2023/04/20 10:12:50;;;;;;;9.65;4.95;;;10.40;93.60;;;;;;5120391;27;20035;-88
2023/04/20 10:15:16;;;;;;;10.43;5.70;;;10.40;93.40;;;;;;5102842;27;20031;-87
2023/04/20 10:17:42;;;;;;;14.30;5.90;;;10.40;93.20;;;;;;5104462;27;20039;-88
2023/04/20 10:20:37;;;;;;;10.88;5.68;;;10.50;93.40;;;;;;5107111;27;20062;-88
2023/04/20 10:23:09;;;;;;;10.75;5.57;;;10.60;93.90;;;;;;5089973;27;20043;-87
2023/04/20 10:25:35;;;;;;;12.25;5.63;;;10.60;93.00;;;;;;5119778;27;20073;-87
2023/04/20 10:28:04;;;;;;;12.32;5.60;;;10.60;92.80;;;;;;5103591;27;20042;-87
2023/04/20 10:30:32;;;;;;;10.23;5.70;;;10.60;92.80;;;;;;5103143;27;20046;-87
2023/04/20 10:33:09;;;;;;;11.27;5.97;;;10.60;93.00;;;;;;5103360;27;20035;-87
2023/04/20 10:35:43;;;;;;;13.30;7.32;;;10.60;93.30;;;;;;5102207;27;20031;-88
2023/04/20 10:38:10;;;;;;;15.18;6.85;;;10.60;93.70;;;;;;5121693;27;20042;-88
2023/04/20 10:40:36;;;;;;;10.73;6.10;;;10.60;93.10;;;;;;5094816;28;20080;-88
2023/04/20 10:43:01;;;;;;;15.07;6.45;;;10.60;92.90;;;;;;5088608;28;20553;-88
2023/04/20 10:45:35;;;;;;;12.32;6.10;;;10.70;93.30;;;;;;5097567;28;20039;-88
2023/04/20 10:48:10;;;;;;;15.00;6.40;;;10.90;94.80;;;;;;5094318;27;20042;-87
2023/04/20 10:50:36;;;;;;;11.30;6.05;;;11.30;95.70;;;;;;5108911;27;20046;-88
2023/04/20 10:53:03;;;;;;;11.13;6.43;;;11.60;94.00;;;;;;5116062;27;20035;-88
2023/04/20 10:55:29;;;;;;;12.43;6.15;;;11.80;92.00;;;;;;5098886;27;20040;-88
2023/04/20 10:57:55;;;;;;;10.98;6.05;;;11.80;91.00;;;;;;5115803;27;20484;-88
2023/04/20 11:00:26;;;;;;;11.27;6.57;;;11.90;90.60;;;;;;5098910;27;20122;-88
2023/04/20 11:02:53;;;;;;;11.90;6.40;;;12.10;90.10;;;;;;5097499;27;20122;-88
2023/04/20 11:05:20;;;;;;;11.48;5.90;;;12.20;88.90;;;;;;5099265;27;20116;-88
2023/04/20 11:07:53;;;;;;;9.18;5.20;;;12.30;87.20;;;;;;5098629;27;20039;-89
2023/04/20 11:10:21;;;;;;;11.02;6.00;;;12.40;85.80;;;;;;5097239;27;20039;-88
2023/04/20 11:12:46;;;;;;;10.73;5.57;;;12.60;85.90;;;;;;5096621;27;20046;-88
2023/04/20 11:15:12;;;;;;;11.05;6.03;;;12.80;84.80;;;;;;5103033;28;20107;-88
2023/04/20 11:17:38;;;;;;;9.27;5.50;;;13.00;83.50;;;;;;5099399;27;20031;-89
2023/04/20 11:20:13;;;;;;;10.50;5.60;;;13.20;82.70;;;;;;5097321;27;20031;-88
2023/04/20 11:22:40;;;;;;;9.93;7.20;;;13.40;81.70;;;;;;5098854;27;20039;-88
2023/04/20 11:25:08;;;;;;;10.40;5.70;;;13.50;79.70;;;;;;5098246;27;20115;-88
2023/04/20 11:27:38;;;;;;;12.23;5.68;;;13.60;78.90;;;;;;5088711;27;20042;-88
2023/04/20 11:30:06;;;;;;;10.77;5.10;;;13.50;78.00;;;;;;5101850;27;20559;-88
2023/04/20 11:32:33;;;;;;;11.02;5.47;;;13.40;77.30;;;;;;5102127;27;20508;-89
2023/04/20 11:35:00;;;;;;;9.98;5.32;;;13.20;77.00;;;;;;5113818;27;20590;-89
2023/04/20 11:37:27;;;;;;;11.63;5.18;;;13.10;77.30;;;;;;5098106;27;20041;-88
2023/04/20 11:40:19;;;;;;;11.10;6.35;;;13.10;77.40;;;;;;5097637;27;20057;-88
2023/04/20 11:42:45;;;;;;;11.68;5.93;;;13.10;76.90;;;;;;5095403;27;20043;-88
2023/04/20 11:45:10;;;;;;;11.95;6.22;;;13.10;77.50;;;;;;5115573;27;20129;-88
2023/04/20 11:47:37;;;;;;;10.50;5.63;;;13.30;78.10;;;;;;5084575;28;20035;-88
2023/04/20 11:50:05;;;;;;;11.32;5.75;;;13.40;76.50;;;;;;5088341;27;20038;-88
2023/04/20 11:52:30;;;;;;;10.43;5.60;;;13.50;76.00;;;;;;5115585;27;20047;-88
2023/04/20 11:54:56;;;;;;;9.55;5.75;;;13.60;75.70;;;;;;5088998;27;20081;-88
2023/04/20 11:57:22;;;;;;;11.52;7.10;;;13.60;75.40;;;;;;5114202;27;20474;-88
2023/04/20 11:59:48;;;;;;;13.68;8.05;;;13.50;74.00;;;;;;5093350;27;20294;-89
2023/04/20 12:02:14;;;;;;;11.02;5.53;;;13.40;73.20;;;;;;5114118;27;20453;-88
2023/04/20 12:04:40;;;;;;;12.15;6.03;;;13.30;73.90;;;;;;5097427;27;20475;-89
2023/04/20 12:07:06;;;;;;;9.75;5.30;;;13.30;74.50;;;;;;5096292;27;20411;-88
2023/04/20 12:09:36;;;;;;;9.85;5.57;;;13.30;74.70;;;;;;5097017;27;20043;-89
2023/04/20 12:12:07;;;;;;;10.80;7.32;;;13.40;74.90;;;;;;5092609;28;20031;-88
2023/04/20 12:14:33;;;;;;;9.82;5.82;;;13.60;74.30;;;;;;5087230;28;20138;-89
2023/04/20 12:17:02;;;;;;;10.48;5.35;;;13.80;74.40;;;;;;5076963;28;20134;-88
2023/04/20 12:19:29;;;;;;;10.35;5.60;;;14.10;74.80;;;;;;5106668;27;20092;-90
2023/04/20 12:21:55;;;;;;;12.30;6.80;;;14.30;73.80;;;;;;5114497;27;20571;-89
2023/04/20 12:24:21;;;;;;;12.48;7.47;;;14.30;73.20;;;;;;5097263;27;20043;-88
2023/04/20 12:26:46;;;;;;;10.38;6.28;;;14.30;72.20;;;;;;5114475;27;20037;-89
2023/04/20 12:29:12;;;;;;;12.93;7.68;;;14.30;72.30;;;;;;5097850;27;20035;-89
2023/04/20 12:31:38;;;;;;;10.43;7.43;;;14.30;72.70;;;;;;5110500;27;20488;-89
2023/04/20 12:34:03;;;;;;;12.82;6.13;;;14.60;72.60;;;;;;5077233;28;20084;-89
2023/04/20 12:36:30;;;;;;;11.18;6.85;;;14.70;72.70;;;;;;5083561;27;20346;-89
2023/04/20 12:38:56;;;;;;;10.40;5.20;;;14.60;70.80;;;;;;5096076;27;20046;-89
2023/04/20 12:41:22;;;;;;;9.57;6.50;;;14.50;70.70;;;;;;5113005;27;20035;-89
2023/04/20 12:43:51;;;;;;;11.55;6.57;;;14.40;69.80;;;;;;5082978;28;20031;-89
2023/04/20 12:46:16;;;;;;;11.05;5.05;;;14.30;69.20;;;;;;5076457;28;20051;-89
2023/04/20 12:48:44;;;;;;;11.60;5.43;;;14.10;70.00;;;;;;5103657;27;20042;-89